Time;durP1;ratioP1;P1;durP2;ratioP2;P2;SDS_P1;SDS_P2;PMS_P1;PMS_P2;Temp;Humidity;BMP_temperature;BMP_pressure;BME280_temperature;BME280_humidity;BME280_pressure;Samples;Min_cycle;Max_cycle;Signal;HPM_P1;HPM_P2
2023/01/18 00:01:20;;;;;;;5.75;3.10;;;-0.60;99.90;;;;;;4959114;28;20053;-77
2023/01/18 00:03:48;;;;;;;3.17;2.88;;;-0.50;99.90;;;;;;4960791;28;20058;-77
2023/01/18 00:06:16;;;;;;;4.97;3.42;;;-0.40;99.90;;;;;;4944894;28;20055;-77
2023/01/18 00:08:44;;;;;;;3.13;2.92;;;-0.50;99.90;;;;;;4942129;28;20046;-77
2023/01/18 00:11:15;;;;;;;3.13;2.47;;;-0.40;99.90;;;;;;4941306;28;20062;-77
2023/01/18 00:13:43;;;;;;;;;;;-0.30;99.90;;;;;;4933009;28;20039;-77
2023/01/18 00:16:11;;;;;;;2.13;1.95;;;-0.30;99.90;;;;;;4960856;28;19934;-77
2023/01/18 00:18:39;;;;;;;4.78;3.33;;;-0.50;99.90;;;;;;4944172;28;20458;-77
2023/01/18 00:21:10;;;;;;;3.97;3.10;;;-0.60;99.90;;;;;;4927679;28;20051;-77
2023/01/18 00:23:38;;;;;;;3.67;3.33;;;-0.80;99.90;;;;;;4920354;28;20066;-77
2023/01/18 00:26:09;;;;;;;5.13;3.45;;;-1.10;99.90;;;;;;4946520;28;20903;-77
2023/01/18 00:28:40;;;;;;;7.15;4.93;;;-1.30;99.90;;;;;;4960588;28;20799;-78
2023/01/18 00:31:10;;;;;;;3.15;2.95;;;-1.40;99.90;;;;;;4945468;28;20062;-77
2023/01/18 00:33:38;;;;;;;4.72;4.20;;;-1.50;99.90;;;;;;4963620;28;20051;-77
2023/01/18 00:36:06;;;;;;;3.60;3.30;;;-1.50;99.90;;;;;;4926146;28;20075;-77
2023/01/18 00:38:33;;;;;;;5.55;3.80;;;-1.50;99.90;;;;;;4943933;28;20057;-77
2023/01/18 00:41:01;;;;;;;4.22;3.72;;;-1.50;99.90;;;;;;4944682;28;20057;-77
2023/01/18 00:43:38;;;;;;;3.97;3.63;;;-1.50;99.90;;;;;;4961169;28;20545;-76
2023/01/18 00:46:11;;;;;;;4.88;4.38;;;-1.40;99.90;;;;;;4937549;28;20050;-77
2023/01/18 00:48:40;;;;;;;3.53;3.22;;;-1.40;99.90;;;;;;4944083;28;20047;-77
2023/01/18 00:51:10;;;;;;;3.92;2.78;;;-1.50;99.90;;;;;;4948452;28;20058;-77
2023/01/18 00:53:38;;;;;;;2.80;2.60;;;-1.60;99.90;;;;;;4960335;28;20042;-77
2023/01/18 00:56:08;;;;;;;4.63;4.05;;;-1.80;99.90;;;;;;4948882;28;20051;-77
2023/01/18 00:58:36;;;;;;;3.60;3.25;;;-1.90;99.90;;;;;;4927233;28;20082;-77
2023/01/18 01:01:08;;;;;;;3.83;3.53;;;-1.80;99.90;;;;;;4965752;28;20049;-77
2023/01/18 01:06:44;;;;;;;3.38;2.60;;;-1.90;99.90;;;;;;4895289;29;20273;-78
2023/01/18 01:09:15;;;;;;;5.85;3.47;;;-1.90;99.90;;;;;;4909890;29;20099;-77
2023/01/18 01:28:27;;;;;;;3.53;3.30;;;-1.90;99.90;;;;;;4882432;29;20068;-76
2023/01/18 01:30:59;;;;;;;5.57;4.00;;;-2.10;99.90;;;;;;4906738;29;20604;-78
2023/01/18 01:33:28;;;;;;;3.40;3.10;;;-2.20;99.90;;;;;;4908056;29;20055;-77
2023/01/18 01:35:59;;;;;;;5.10;4.80;;;-2.20;99.90;;;;;;4923254;29;20059;-78
2023/01/18 01:38:28;;;;;;;5.22;4.82;;;-2.20;99.90;;;;;;4921321;29;20051;-77
2023/01/18 01:41:05;;;;;;;5.90;4.70;;;-2.20;99.90;;;;;;4961709;28;20051;-77
2023/01/18 01:43:49;;;;;;;4.72;4.38;;;-2.20;99.90;;;;;;4923797;28;20046;-78
2023/01/18 01:46:43;;;;;;;4.43;4.03;;;-2.20;99.90;;;;;;4962872;28;20051;-77
2023/01/18 01:49:16;;;;;;;5.05;3.88;;;-2.10;99.90;;;;;;4946193;28;20046;-78
2023/01/18 01:51:48;;;;;;;4.13;3.72;;;-2.10;99.90;;;;;;4948846;28;20443;-77
2023/01/18 01:54:29;;;;;;;4.38;4.07;;;-2.30;99.90;;;;;;4945263;28;20047;-78
2023/01/18 01:57:04;;;;;;;4.78;3.65;;;-2.40;99.90;;;;;;4961249;28;20050;-77
2023/01/18 01:59:36;;;;;;;4.80;4.18;;;-2.40;99.90;;;;;;4965315;28;20047;-78
2023/01/18 02:02:04;;;;;;;4.50;4.10;;;-2.40;99.90;;;;;;4970790;28;20471;-78
2023/01/18 02:04:33;;;;;;;4.25;3.95;;;-2.30;99.90;;;;;;4931074;28;20053;-78
2023/01/18 02:07:03;;;;;;;5.43;3.55;;;-2.30;99.90;;;;;;4920170;28;20803;-77
2023/01/18 02:09:32;;;;;;;5.25;4.90;;;-2.20;99.90;;;;;;4932308;28;20042;-78
2023/01/18 02:11:59;;;;;;;6.38;3.97;;;-2.20;99.90;;;;;;4931710;28;20053;-78
2023/01/18 02:14:27;;;;;;;7.05;4.68;;;-2.10;99.90;;;;;;4967506;28;20077;-78
2023/01/18 02:17:21;;;;;;;3.97;3.63;;;-2.00;99.90;;;;;;4962229;28;20054;-77
2023/01/18 02:19:54;;;;;;;4.93;3.67;;;-2.00;99.90;;;;;;4958752;28;20053;-77
2023/01/18 02:22:41;;;;;;;4.22;3.92;;;-2.00;99.90;;;;;;4920636;28;20047;-77
2023/01/18 02:25:33;;;;;;;4.40;4.10;;;-2.00;99.90;;;;;;4947169;28;20065;-78
2023/01/18 02:28:17;;;;;;;5.13;3.53;;;-2.10;99.90;;;;;;4947512;28;20054;-77
2023/01/18 02:31:17;;;;;;;4.80;3.80;;;-2.10;99.90;;;;;;4943477;28;20051;-77
2023/01/18 02:34:13;;;;;;;6.63;6.07;;;-2.10;99.90;;;;;;4943875;28;20053;-77
2023/01/18 02:36:44;;;;;;;4.38;4.00;;;-2.20;99.90;;;;;;4954369;28;20277;-77
2023/01/18 02:39:37;;;;;;;4.13;3.83;;;-2.20;99.90;;;;;;4948783;28;20062;-78
2023/01/18 02:48:08;;;;;;;2.55;2.45;;;-2.10;99.90;;;;;;4964426;28;20139;-76
2023/01/18 02:50:36;;;;;;;2.80;2.60;;;-2.20;99.90;;;;;;4971040;28;20046;-78
2023/01/18 02:53:05;;;;;;;5.18;3.20;;;-2.20;99.90;;;;;;4959439;28;20051;-77
2023/01/18 02:55:52;;;;;;;2.53;2.33;;;-2.10;99.90;;;;;;4965387;28;20051;-78
2023/01/18 02:58:31;;;;;;;2.78;2.60;;;-1.70;99.90;;;;;;4954550;28;20047;-78
2023/01/18 03:01:49;;;;;;;2.53;2.42;;;-1.20;99.90;;;;;;4953617;28;20344;-78
2023/01/18 03:04:25;;;;;;;2.30;2.08;;;-0.90;99.90;;;;;;4890141;29;20052;-78
2023/01/18 03:07:25;;;;;;;2.35;2.15;;;-0.50;99.90;;;;;;4867229;29;20060;-77
2023/01/18 03:09:54;;;;;;;2.45;2.35;;;-0.30;99.90;;;;;;4941450;28;20051;-77
2023/01/18 03:12:46;;;;;;;2.00;1.90;;;-0.20;99.90;;;;;;4966998;28;20287;-77
2023/01/18 03:15:23;;;;;;;2.40;2.22;;;0.00;99.90;;;;;;4969822;28;20055;-77
2023/01/18 03:17:58;;;;;;;2.33;2.13;;;0.10;99.90;;;;;;4969255;28;20043;-77
2023/01/18 03:20:31;;;;;;;2.78;2.15;;;0.10;99.90;;;;;;4958695;28;20065;-77
2023/01/18 03:23:40;;;;;;;1.85;1.75;;;0.20;99.90;;;;;;4955471;28;20055;-77
2023/01/18 03:26:15;;;;;;;2.50;2.33;;;0.30;99.90;;;;;;4950226;28;20435;-77
2023/01/18 03:35:02;;;;;;;2.50;2.40;;;0.40;99.90;;;;;;4945595;28;20050;-77
2023/01/18 03:37:31;;;;;;;1.65;1.55;;;0.40;99.90;;;;;;4953694;28;20390;-81
2023/01/18 03:40:09;;;;;;;3.20;2.63;;;0.60;99.90;;;;;;4956585;28;20060;-77
2023/01/18 03:42:42;;;;;;;4.13;3.80;;;0.70;99.90;;;;;;4982370;28;20073;-77
2023/01/18 03:45:22;;;;;;;2.55;2.35;;;0.80;99.90;;;;;;4993383;28;20055;-77
2023/01/18 03:47:52;;;;;;;1.95;1.85;;;0.80;99.90;;;;;;4987919;28;20046;-77
2023/01/18 03:50:29;;;;;;;1.52;1.42;;;0.90;99.90;;;;;;4988737;28;20034;-78
2023/01/18 03:53:02;;;;;;;2.20;2.10;;;1.00;99.90;;;;;;4990667;28;20897;-76
2023/01/18 03:55:42;;;;;;;1.77;1.67;;;1.10;99.90;;;;;;4951871;28;20152;-77
2023/01/18 03:58:11;;;;;;;1.73;1.63;;;1.10;99.90;;;;;;4964373;28;20074;-77
2023/01/18 04:00:40;;;;;;;2.50;1.75;;;1.10;99.90;;;;;;4986947;28;20039;-77
2023/01/18 04:03:08;;;;;;;7.47;1.58;;;1.20;99.90;;;;;;4955518;28;20053;-77
2023/01/18 04:05:36;;;;;;;1.73;1.67;;;1.10;99.90;;;;;;4988017;28;20057;-77
2023/01/18 04:08:04;;;;;;;1.42;1.38;;;1.00;99.90;;;;;;4969486;28;20061;-77
2023/01/18 04:10:32;;;;;;;2.67;1.42;;;1.00;99.90;;;;;;4955661;28;20043;-77
2023/01/18 04:13:00;;;;;;;1.30;1.30;;;1.10;99.90;;;;;;4976870;28;20039;-77
2023/01/18 04:15:28;;;;;;;1.27;1.27;;;1.10;99.90;;;;;;4970762;28;20050;-77
2023/01/18 04:17:57;;;;;;;1.63;1.52;;;1.00;99.90;;;;;;4953166;28;20057;-76
2023/01/18 04:20:27;;;;;;;1.45;1.40;;;1.00;99.90;;;;;;4986285;28;20058;-77
2023/01/18 04:22:58;;;;;;;1.88;1.77;;;1.10;99.90;;;;;;4954484;28;20289;-77
2023/01/18 04:25:26;;;;;;;1.80;1.70;;;1.00;99.90;;;;;;4938115;28;20515;-77
2023/01/18 04:27:54;;;;;;;1.75;1.30;;;1.00;99.90;;;;;;4961037;28;20050;-77
2023/01/18 04:30:22;;;;;;;1.50;1.40;;;1.10;99.90;;;;;;4950400;28;20070;-77
2023/01/18 04:32:51;;;;;;;2.00;1.40;;;1.10;99.90;;;;;;4943628;28;20054;-76
2023/01/18 04:35:19;;;;;;;1.80;1.70;;;1.00;99.90;;;;;;4961625;28;20059;-77
2023/01/18 04:37:51;;;;;;;1.98;1.88;;;0.90;99.90;;;;;;4926998;28;20415;-77
2023/01/18 04:40:19;;;;;;;1.95;1.75;;;1.00;99.90;;;;;;4964604;28;20043;-77
2023/01/18 04:42:53;;;;;;;1.15;1.10;;;1.00;99.90;;;;;;4947574;28;20054;-77
2023/01/18 04:45:21;;;;;;;2.10;2.00;;;1.00;99.90;;;;;;4947428;28;20058;-76
2023/01/18 04:47:49;;;;;;;2.85;2.65;;;1.00;99.90;;;;;;4965083;28;20248;-76
2023/01/18 04:50:17;;;;;;;2.33;1.70;;;0.90;99.90;;;;;;4963975;28;20062;-76
2023/01/18 04:52:44;;;;;;;1.75;1.65;;;0.90;99.90;;;;;;4964117;28;20046;-76
2023/01/18 04:55:14;;;;;;;1.77;1.67;;;1.00;99.90;;;;;;4948017;28;20047;-77
2023/01/18 04:57:43;;;;;;;1.77;1.67;;;0.90;99.90;;;;;;4965602;28;20078;-77
2023/01/18 05:00:13;;;;;;;1.38;1.27;;;1.00;99.90;;;;;;4944449;28;20046;-77
2023/01/18 05:02:41;;;;;;;1.55;1.45;;;0.90;99.90;;;;;;4948144;28;20054;-77
2023/01/18 05:05:09;;;;;;;1.88;1.77;;;0.70;99.90;;;;;;4947035;28;20531;-77
2023/01/18 05:07:37;;;;;;;3.55;1.70;;;0.50;99.90;;;;;;4965348;28;20258;-76
2023/01/18 05:10:05;;;;;;;2.95;1.65;;;0.40;99.90;;;;;;4941444;28;20051;-77
2023/01/18 05:12:33;;;;;;;1.30;1.30;;;0.30;99.90;;;;;;4964581;28;20047;-77
2023/01/18 05:15:01;;;;;;;1.58;1.48;;;0.30;99.90;;;;;;4931866;29;20051;-76
2023/01/18 05:17:29;;;;;;;3.65;1.60;;;0.30;99.90;;;;;;4964528;28;20160;-76
2023/01/18 05:19:57;;;;;;;1.50;1.40;;;0.20;99.90;;;;;;4957225;28;20058;-76
2023/01/18 05:22:24;;;;;;;1.42;1.33;;;0.10;99.90;;;;;;4965288;28;20058;-78
2023/01/18 05:24:53;;;;;;;1.33;1.23;;;0.10;99.90;;;;;;4963200;28;20050;-77
2023/01/18 05:27:21;;;;;;;2.88;2.65;;;0.00;99.90;;;;;;4948103;28;20063;-77
2023/01/18 05:29:50;;;;;;;9.93;2.05;;;-0.10;99.90;;;;;;4959220;28;20411;-78
2023/01/18 05:32:19;;;;;;;2.10;2.00;;;-0.10;99.90;;;;;;4966858;28;20050;-77
2023/01/18 05:34:46;;;;;;;1.40;1.30;;;-0.20;99.90;;;;;;4969313;28;20043;-76
2023/01/18 05:37:15;;;;;;;2.80;2.28;;;-0.30;99.90;;;;;;4929452;28;20061;-76
2023/01/18 05:39:43;;;;;;;1.67;1.48;;;-0.40;99.90;;;;;;4945217;28;20055;-76
2023/01/18 05:42:10;;;;;;;7.10;2.47;;;-0.50;99.90;;;;;;4964678;28;20050;-77
2023/01/18 05:44:43;;;;;;;1.75;1.65;;;-0.60;99.90;;;;;;4960561;28;20050;-76
2023/01/18 05:47:14;;;;;;;1.80;1.70;;;-0.60;99.90;;;;;;4941434;28;20066;-77
2023/01/18 05:49:42;;;;;;;2.00;1.83;;;-0.60;99.90;;;;;;4949173;28;20047;-77
2023/01/18 05:52:09;;;;;;;1.75;1.65;;;-0.70;99.90;;;;;;4948857;28;20074;-77
2023/01/18 05:54:37;;;;;;;1.88;1.83;;;-0.80;99.90;;;;;;4967730;28;20787;-76
2023/01/18 05:57:06;;;;;;;1.83;1.80;;;-0.80;99.90;;;;;;4963413;28;20047;-77
2023/01/18 05:59:34;;;;;;;1.75;1.65;;;-0.80;99.90;;;;;;4932717;28;20419;-76
2023/01/18 06:02:03;;;;;;;2.30;2.10;;;-0.80;99.90;;;;;;4964787;28;20039;-77
2023/01/18 06:04:33;;;;;;;1.92;1.83;;;-0.70;99.90;;;;;;4940262;28;20062;-77
2023/01/18 06:07:01;;;;;;;2.45;1.67;;;-0.80;99.90;;;;;;4960056;28;20073;-77
2023/01/18 06:09:29;;;;;;;2.88;2.78;;;-0.80;99.90;;;;;;4943489;28;20054;-78
2023/01/18 06:11:56;;;;;;;1.95;1.85;;;-0.70;99.90;;;;;;4963719;28;20055;-77
2023/01/18 06:14:24;;;;;;;1.70;1.60;;;-0.70;99.90;;;;;;4964537;28;20047;-76
2023/01/18 06:16:53;;;;;;;4.43;2.05;;;-1.10;99.90;;;;;;4946045;28;20061;-77
2023/01/18 06:19:20;;;;;;;9.68;3.15;;;-1.30;99.90;;;;;;4929932;28;20718;-78
2023/01/18 06:21:48;;;;;;;3.38;1.92;;;-1.50;99.90;;;;;;4945609;28;20443;-77
2023/01/18 06:24:15;;;;;;;1.55;1.55;;;-1.60;99.90;;;;;;4914022;28;20054;-76
2023/01/18 06:26:43;;;;;;;2.13;1.98;;;-1.60;99.90;;;;;;4964382;28;20043;-76
2023/01/18 06:29:11;;;;;;;2.75;2.55;;;-1.70;99.90;;;;;;4962708;28;20046;-77
2023/01/18 06:31:39;;;;;;;2.63;2.42;;;-1.70;99.90;;;;;;4945403;28;20535;-77
2023/01/18 06:34:08;;;;;;;2.33;2.15;;;-1.60;99.90;;;;;;4945810;28;20447;-77
2023/01/18 06:36:36;;;;;;;2.42;2.22;;;-1.60;99.90;;;;;;4946502;28;20631;-77
2023/01/18 06:39:04;;;;;;;7.35;2.85;;;-1.50;99.90;;;;;;4946688;28;20059;-78
2023/01/18 06:41:32;;;;;;;3.92;3.50;;;-1.20;99.90;;;;;;4948555;28;20050;-78
2023/01/18 06:44:01;;;;;;;3.17;1.70;;;-1.30;99.90;;;;;;4966860;28;20423;-77
2023/01/18 06:46:29;;;;;;;4.65;2.20;;;-1.40;99.90;;;;;;4965442;28;20055;-77
2023/01/18 06:48:56;;;;;;;3.15;2.80;;;-1.60;99.90;;;;;;4914780;28;20498;-77
2023/01/18 06:51:24;;;;;;;1.73;1.63;;;-1.70;99.90;;;;;;4968501;28;20061;-77
2023/01/18 06:53:52;;;;;;;3.08;2.22;;;-1.60;99.90;;;;;;4964887;28;20050;-77
2023/01/18 06:56:19;;;;;;;3.03;2.72;;;-1.50;99.90;;;;;;4936656;28;20498;-77
2023/01/18 06:58:47;;;;;;;1.92;1.83;;;-1.40;99.90;;;;;;4948930;28;20058;-77
2023/01/18 07:01:14;;;;;;;2.30;2.20;;;-1.40;99.90;;;;;;4949604;28;20038;-77
2023/01/18 07:03:42;;;;;;;4.20;3.17;;;-1.40;99.90;;;;;;4951460;28;20057;-77
2023/01/18 07:06:11;;;;;;;2.25;2.15;;;-1.40;99.90;;;;;;4950349;28;20776;-77
2023/01/18 07:08:39;;;;;;;5.05;3.08;;;-1.50;99.90;;;;;;4961851;28;20057;-77
2023/01/18 07:11:08;;;;;;;2.17;2.08;;;-1.70;99.90;;;;;;4964008;28;20411;-77
2023/01/18 07:13:39;;;;;;;2.40;2.20;;;-1.60;99.90;;;;;;4955165;28;20057;-77
2023/01/18 07:16:16;;;;;;;3.63;3.35;;;-1.60;99.90;;;;;;4965832;28;20054;-77
2023/01/18 07:18:47;;;;;;;2.25;2.13;;;-1.50;99.90;;;;;;4921336;29;20456;-77
2023/01/18 07:21:16;;;;;;;3.92;3.00;;;-1.40;99.90;;;;;;4956280;28;20069;-77
2023/01/18 07:23:44;;;;;;;2.50;2.28;;;-1.30;99.90;;;;;;4946281;28;20054;-77
2023/01/18 07:26:15;;;;;;;2.30;2.20;;;-1.20;99.90;;;;;;4946674;28;20047;-77
2023/01/18 07:28:44;;;;;;;2.70;2.45;;;-1.10;99.90;;;;;;4964832;28;20051;-77
2023/01/18 07:31:13;;;;;;;3.10;1.88;;;-1.00;99.90;;;;;;4947824;28;20054;-77
2023/01/18 07:33:41;;;;;;;2.92;2.72;;;-0.90;99.90;;;;;;4947784;28;20042;-77
2023/01/18 07:36:09;;;;;;;2.90;2.63;;;-0.60;99.90;;;;;;4929520;28;20105;-77
2023/01/18 07:38:39;;;;;;;2.60;2.40;;;-0.50;99.90;;;;;;4943834;28;20062;-77
2023/01/18 07:41:10;;;;;;;5.82;3.80;;;-0.50;99.90;;;;;;4943921;28;20050;-77
2023/01/18 07:43:37;;;;;;;3.75;3.42;;;-0.50;99.90;;;;;;4961214;28;20059;-77
2023/01/18 07:46:08;;;;;;;3.40;3.10;;;-0.50;99.90;;;;;;4962160;28;20050;-77
2023/01/18 07:48:35;;;;;;;6.50;3.80;;;-0.50;99.90;;;;;;4962350;28;20628;-77
2023/01/18 07:51:07;;;;;;;3.45;2.45;;;-0.40;99.90;;;;;;4943700;28;20054;-77
2023/01/18 07:53:36;;;;;;;1.90;1.80;;;-0.40;99.90;;;;;;4960325;28;20404;-77
2023/01/18 07:56:12;;;;;;;2.03;1.92;;;-0.40;99.90;;;;;;4944420;28;20038;-77
2023/01/18 07:58:43;;;;;;;2.90;2.65;;;-0.30;99.90;;;;;;4928920;28;20523;-77
2023/01/18 08:01:14;;;;;;;2.53;2.33;;;-0.30;99.90;;;;;;4945189;28;20050;-77
2023/01/18 08:03:42;;;;;;;2.60;2.40;;;-0.40;99.90;;;;;;4950664;28;20062;-77
2023/01/18 08:06:15;;;;;;;2.17;2.08;;;-0.50;99.90;;;;;;4944921;28;20253;-77
2023/01/18 08:08:43;;;;;;;2.75;2.55;;;-0.50;99.90;;;;;;4927429;28;20069;-77
2023/01/18 08:11:13;;;;;;;2.75;2.42;;;-0.40;99.90;;;;;;4959948;28;20047;-77
2023/01/18 08:13:41;;;;;;;2.90;2.60;;;-0.20;99.90;;;;;;4960193;28;20253;-77
2023/01/18 08:16:10;;;;;;;2.75;2.35;;;0.00;99.90;;;;;;4963761;28;20047;-77
2023/01/18 08:18:39;;;;;;;4.75;2.05;;;0.10;99.90;;;;;;4964970;28;20064;-77
2023/01/18 08:21:10;;;;;;;2.40;2.20;;;0.30;99.90;;;;;;4955959;28;20409;-77
2023/01/18 08:23:38;;;;;;;2.55;2.40;;;0.30;99.90;;;;;;4962854;28;20768;-77
2023/01/18 08:26:07;;;;;;;4.88;1.83;;;0.30;99.90;;;;;;4963883;28;20047;-76
2023/01/18 08:28:36;;;;;;;3.10;2.63;;;0.50;99.90;;;;;;4960770;28;20392;-77
2023/01/18 08:31:26;;;;;;;3.45;2.40;;;0.60;99.90;;;;;;4964637;28;20070;-77
2023/01/18 08:33:54;;;;;;;4.13;3.60;;;0.70;99.90;;;;;;4944985;28;20439;-77
2023/01/18 08:36:24;;;;;;;3.40;3.00;;;0.60;99.90;;;;;;4964407;28;20438;-77
2023/01/18 08:38:58;;;;;;;3.50;3.15;;;0.50;99.90;;;;;;4947614;28;20059;-77
2023/01/18 08:41:28;;;;;;;3.58;2.90;;;0.40;99.90;;;;;;4942882;28;20039;-77
2023/01/18 08:43:58;;;;;;;2.67;2.47;;;0.50;99.90;;;;;;4943280;28;20613;-77
2023/01/18 08:46:26;;;;;;;6.13;2.17;;;0.80;99.90;;;;;;4943093;28;20059;-76
2023/01/18 08:48:56;;;;;;;2.45;2.15;;;1.00;99.90;;;;;;4964371;28;20525;-77
2023/01/18 08:51:25;;;;;;;3.15;2.90;;;1.20;99.90;;;;;;4944942;28;20517;-77
2023/01/18 08:53:56;;;;;;;2.70;2.45;;;1.30;99.90;;;;;;4946433;28;20089;-77
2023/01/18 08:56:24;;;;;;;2.40;2.27;;;1.50;99.90;;;;;;4944233;28;20043;-77
2023/01/18 08:58:53;;;;;;;2.90;2.70;;;1.50;99.90;;;;;;4962028;28;20678;-77
2023/01/18 09:01:22;;;;;;;5.75;2.97;;;1.60;99.90;;;;;;4966306;28;20051;-77
2023/01/18 09:03:54;;;;;;;2.25;1.95;;;1.60;99.90;;;;;;4960407;28;20760;-78
2023/01/18 09:06:23;;;;;;;1.95;1.85;;;1.60;99.90;;;;;;4960811;28;20051;-77
2023/01/18 09:08:51;;;;;;;3.47;3.28;;;1.70;99.90;;;;;;4960218;28;20717;-77
2023/01/18 09:11:19;;;;;;;3.13;2.78;;;1.70;99.90;;;;;;4960752;28;20062;-76
2023/01/18 09:13:47;;;;;;;1.92;1.83;;;1.70;99.90;;;;;;4940117;28;20047;-76
2023/01/18 09:16:27;;;;;;;2.53;2.30;;;1.60;99.90;;;;;;4956610;28;20046;-76
2023/01/18 09:18:57;;;;;;;3.25;2.08;;;1.60;99.90;;;;;;4932938;28;20199;-76
2023/01/18 09:21:27;;;;;;;4.75;3.08;;;1.50;99.90;;;;;;4960812;28;20359;-76
2023/01/18 09:23:56;;;;;;;2.53;2.33;;;1.40;99.90;;;;;;4959661;28;20061;-77
2023/01/18 09:26:27;;;;;;;1.70;1.60;;;1.40;99.90;;;;;;4952517;28;20523;-76
2023/01/18 09:28:55;;;;;;;3.65;3.05;;;1.40;99.90;;;;;;4923798;28;20526;-76
2023/01/18 09:31:27;;;;;;;5.05;2.92;;;1.40;99.90;;;;;;4951323;28;20062;-76
2023/01/18 09:33:56;;;;;;;2.85;2.65;;;1.40;99.90;;;;;;4933302;28;20042;-76
2023/01/18 09:36:43;;;;;;;2.67;2.28;;;1.50;99.90;;;;;;4959231;28;20043;-76
2023/01/18 09:39:11;;;;;;;4.38;2.40;;;1.60;99.90;;;;;;4966148;28;20050;-76
2023/01/18 09:42:00;;;;;;;3.90;2.45;;;1.60;99.90;;;;;;4943316;28;20051;-76
2023/01/18 09:44:39;;;;;;;3.10;2.42;;;1.70;99.90;;;;;;4933836;28;20058;-76
2023/01/18 09:47:12;;;;;;;;;;;1.70;99.90;;;;;;4929841;28;20043;-76
2023/01/18 09:49:56;;;;;;;2.83;1.95;;;1.80;99.90;;;;;;4929081;28;19927;-77
2023/01/18 09:52:58;;;;;;;2.20;2.05;;;1.80;99.90;;;;;;4969022;28;20050;-77
2023/01/18 09:55:47;;;;;;;1.95;1.80;;;1.90;99.90;;;;;;4942534;28;20070;-77
2023/01/18 09:58:37;;;;;;;3.88;2.33;;;1.90;99.90;;;;;;4924025;28;20047;-76
2023/01/18 10:01:13;;;;;;;2.95;2.67;;;2.10;99.90;;;;;;4975064;28;20053;-76
2023/01/18 10:03:47;;;;;;;2.38;2.17;;;2.50;99.90;;;;;;4946891;28;20055;-76
2023/01/18 10:06:31;;;;;;;4.68;2.47;;;3.20;99.90;;;;;;4910937;28;20062;-77
2023/01/18 10:09:10;;;;;;;6.07;1.42;;;3.50;99.90;;;;;;4976343;28;20051;-77
2023/01/18 10:11:46;;;;;;;1.10;1.10;;;3.60;99.90;;;;;;4970970;28;20380;-76
2023/01/18 10:14:35;;;;;;;1.10;1.00;;;3.50;99.90;;;;;;4955087;28;20042;-76
2023/01/18 10:17:13;;;;;;;1.38;1.38;;;3.60;99.90;;;;;;4928106;28;20043;-77
2023/01/18 10:19:41;;;;;;;1.65;1.40;;;3.50;99.90;;;;;;4958176;28;20042;-77
2023/01/18 10:22:22;;;;;;;0.82;0.82;;;3.60;99.90;;;;;;4971620;28;20058;-77
2023/01/18 10:25:04;;;;;;;1.13;1.02;;;3.90;99.90;;;;;;4941586;28;20061;-77
2023/01/18 10:27:57;;;;;;;1.25;1.25;;;3.80;99.90;;;;;;4917711;29;20062;-77
2023/01/18 10:31:05;;;;;;;0.73;0.73;;;3.50;99.90;;;;;;4944393;28;20402;-77
2023/01/18 10:33:40;;;;;;;1.45;1.45;;;3.50;99.90;;;;;;4925632;28;20050;-78
2023/01/18 10:36:42;;;;;;;1.25;1.20;;;3.20;99.90;;;;;;4937345;28;20054;-77
2023/01/18 10:39:41;;;;;;;1.70;1.60;;;3.10;99.90;;;;;;4934989;28;20403;-76
2023/01/18 10:42:19;;;;;;;1.50;1.27;;;3.10;99.90;;;;;;4970098;28;20290;-77
2023/01/18 10:44:48;;;;;;;1.65;1.55;;;3.00;99.90;;;;;;4970667;28;20051;-77
2023/01/18 10:47:18;;;;;;;1.15;1.15;;;3.20;99.90;;;;;;4953813;28;20058;-77
2023/01/18 10:49:49;;;;;;;1.83;1.75;;;3.30;99.90;;;;;;4953392;28;20426;-77
2023/01/18 10:52:33;;;;;;;1.45;1.33;;;3.40;99.90;;;;;;4963802;28;20039;-77
2023/01/18 10:55:06;;;;;;;1.80;1.70;;;3.50;99.90;;;;;;4976655;28;20208;-77
2023/01/18 10:57:46;;;;;;;1.90;1.80;;;3.60;99.90;;;;;;4956524;29;20054;-77
2023/01/18 11:00:34;;;;;;;1.60;1.45;;;3.60;99.90;;;;;;4990064;28;20031;-77
2023/01/18 11:03:04;;;;;;;1.50;1.25;;;3.60;99.90;;;;;;4971686;28;20054;-76
2023/01/18 11:05:43;;;;;;;1.30;1.30;;;3.70;99.90;;;;;;4974151;28;20061;-76
2023/01/18 11:08:24;;;;;;;1.75;1.65;;;3.80;99.90;;;;;;4965744;28;20121;-77
2023/01/18 11:12:32;;;;;;;1.60;1.40;;;3.90;99.90;;;;;;4991115;28;20027;-76
2023/01/18 11:14:29;;;;;;;1.48;1.38;;;3.90;99.90;;;;;;4990626;28;20064;-77
2023/01/18 11:17:09;;;;;;;1.50;1.40;;;3.70;99.90;;;;;;4965672;28;20039;-76
2023/01/18 11:19:38;;;;;;;1.67;1.58;;;3.50;99.90;;;;;;4972718;28;20647;-76
2023/01/18 11:22:15;;;;;;;1.65;1.55;;;3.30;99.90;;;;;;4990687;28;20057;-76
2023/01/18 11:24:44;;;;;;;1.63;1.52;;;3.50;99.90;;;;;;4972260;28;20039;-76
2023/01/18 11:27:20;;;;;;;1.27;1.27;;;3.50;99.90;;;;;;4988962;28;20054;-75
2023/01/18 11:29:49;;;;;;;1.95;1.60;;;3.40;99.90;;;;;;4970536;28;20049;-76
2023/01/18 11:32:26;;;;;;;2.08;1.88;;;3.40;99.90;;;;;;4972743;28;20041;-75
2023/01/18 11:34:56;;;;;;;2.22;2.13;;;3.50;99.90;;;;;;4968780;28;20387;-76
2023/01/18 11:37:35;;;;;;;1.52;1.42;;;3.30;99.90;;;;;;4949530;28;20057;-75
2023/01/18 11:40:19;;;;;;;1.98;1.88;;;3.40;99.90;;;;;;4943376;28;20058;-75
2023/01/18 11:42:52;;;;;;;1.40;1.40;;;3.60;99.90;;;;;;4945406;28;20050;-76
2023/01/18 11:45:47;;;;;;;1.92;1.83;;;3.40;99.90;;;;;;4948931;28;20403;-74
2023/01/18 11:48:29;;;;;;;2.33;1.65;;;3.50;99.90;;;;;;4957456;28;20066;-75
2023/01/18 11:51:27;;;;;;;2.13;2.10;;;3.50;99.90;;;;;;4926271;28;20430;-75
2023/01/18 11:54:01;;;;;;;1.42;1.40;;;3.50;99.90;;;;;;4904975;29;20045;-75
2023/01/18 11:56:49;;;;;;;1.70;1.70;;;3.30;99.90;;;;;;4899944;29;20049;-74
2023/01/18 11:59:29;;;;;;;1.23;1.23;;;3.10;99.90;;;;;;4922580;29;20765;-76
2023/01/18 12:01:59;;;;;;;2.08;1.98;;;2.90;99.90;;;;;;4915967;29;20059;-74
2023/01/18 12:05:01;;;;;;;2.10;2.00;;;2.70;99.90;;;;;;4925103;29;20652;-75
2023/01/18 12:07:48;;;;;;;1.15;1.15;;;2.70;99.90;;;;;;4923457;29;20059;-76
2023/01/18 12:10:22;;;;;;;1.38;1.33;;;2.70;99.90;;;;;;4929973;29;20428;-75
2023/01/18 12:12:59;;;;;;;1.30;1.30;;;2.60;99.90;;;;;;4938115;29;20055;-76
2023/01/18 12:15:46;;;;;;;1.27;1.17;;;2.70;99.90;;;;;;4928516;29;20055;-75
2023/01/18 12:18:56;;;;;;;5.15;1.73;;;2.60;99.90;;;;;;4889399;29;20477;-74
2023/01/18 12:22:07;;;;;;;2.03;1.92;;;2.60;99.90;;;;;;4908360;29;20547;-76
2023/01/18 12:25:19;;;;;;;4.07;1.37;;;2.70;99.90;;;;;;4887188;29;20059;-76
2023/01/18 12:28:06;;;;;;;1.85;1.67;;;3.20;99.90;;;;;;4832892;29;20062;-75
2023/01/18 12:30:42;;;;;;;1.70;1.63;;;3.30;99.90;;;;;;4826095;29;20105;-75
2023/01/18 12:33:22;;;;;;;1.90;1.80;;;3.20;99.90;;;;;;4888013;29;20048;-75
2023/01/18 12:36:18;;;;;;;2.00;1.90;;;3.30;99.90;;;;;;4926402;29;20059;-76
2023/01/18 12:38:52;;;;;;;1.42;1.40;;;3.00;99.90;;;;;;4923168;29;20056;-74
2023/01/18 12:41:49;;;;;;;1.80;1.70;;;2.90;99.90;;;;;;4895975;29;20051;-75
2023/01/18 12:44:42;;;;;;;2.13;2.03;;;2.90;99.90;;;;;;4927623;29;20055;-75
2023/01/18 12:47:33;;;;;;;1.90;1.80;;;2.90;99.90;;;;;;4898545;29;20432;-75
2023/01/18 12:50:12;;;;;;;1.95;1.85;;;2.70;99.90;;;;;;4925540;29;20059;-75
2023/01/18 12:52:47;;;;;;;1.77;1.67;;;2.90;99.90;;;;;;4902446;29;20056;-75
2023/01/18 12:55:21;;;;;;;2.55;2.35;;;3.00;99.90;;;;;;4887968;29;20051;-75
2023/01/18 12:57:54;;;;;;;1.60;1.50;;;3.00;99.90;;;;;;4890027;29;20062;-75
2023/01/18 13:00:32;;;;;;;2.35;1.60;;;2.90;99.90;;;;;;4921624;29;20058;-75
2023/01/18 13:03:17;;;;;;;2.60;2.23;;;2.80;99.90;;;;;;4899807;29;20059;-74
2023/01/18 13:05:59;;;;;;;2.00;1.90;;;2.60;99.90;;;;;;4910045;29;20043;-76
2023/01/18 13:08:42;;;;;;;2.05;1.95;;;2.60;99.90;;;;;;4904643;29;20055;-75
2023/01/18 13:11:30;;;;;;;;;;;2.70;99.90;;;;;;4910868;29;20575;-75
2023/01/18 13:14:42;;;;;;;1.77;1.73;;;2.80;99.90;;;;;;4906044;29;19934;-75
2023/01/18 13:17:30;;;;;;;3.28;2.00;;;2.80;99.90;;;;;;4921067;29;20387;-75
2023/01/18 13:20:11;;;;;;;1.90;1.80;;;2.70;99.90;;;;;;4907298;29;20047;-75
2023/01/18 13:23:16;;;;;;;2.08;1.95;;;2.80;99.90;;;;;;4890179;29;20063;-75
2023/01/18 13:25:53;;;;;;;1.65;1.55;;;2.70;99.90;;;;;;4907715;29;21546;-75
2023/01/18 13:28:25;;;;;;;1.83;1.73;;;2.60;99.90;;;;;;4907370;29;20059;-75
2023/01/18 13:30:59;;;;;;;1.85;1.75;;;2.60;99.90;;;;;;4928087;29;20746;-75
2023/01/18 13:33:34;;;;;;;1.55;1.45;;;2.60;99.90;;;;;;4923074;29;20044;-75
2023/01/18 13:36:12;;;;;;;2.60;2.50;;;2.60;99.90;;;;;;4903179;29;20060;-75
2023/01/18 13:38:57;;;;;;;2.33;2.10;;;2.60;99.90;;;;;;4911767;29;20067;-75
2023/01/18 13:41:28;;;;;;;3.95;3.38;;;2.40;99.90;;;;;;4909637;29;20051;-77
2023/01/18 13:44:29;;;;;;;3.28;3.05;;;2.40;99.90;;;;;;4926908;29;20051;-76
2023/01/18 13:47:00;;;;;;;4.45;2.60;;;2.20;99.90;;;;;;4901066;29;20048;-75
2023/01/18 13:49:36;;;;;;;2.58;2.47;;;2.20;99.90;;;;;;4909427;29;20050;-74
2023/01/18 13:52:30;;;;;;;2.88;2.70;;;2.20;99.90;;;;;;4920133;29;20070;-75
2023/01/18 13:55:02;;;;;;;2.63;2.45;;;2.00;99.90;;;;;;4924111;29;20067;-78
2023/01/18 13:57:32;;;;;;;2.85;2.65;;;2.00;99.90;;;;;;4928331;29;20534;-76
2023/01/18 14:00:01;;;;;;;4.15;3.67;;;2.00;99.90;;;;;;4905785;29;20381;-75
2023/01/18 14:02:44;;;;;;;1.73;1.63;;;2.00;99.90;;;;;;4913632;29;20458;-74
2023/01/18 14:05:18;;;;;;;3.72;2.70;;;2.10;99.90;;;;;;4912047;29;20066;-75